WetterOnline ( http://www.wetteronline.de )

Wetter aktuell Alfeld

Aktuelles Wetter: Alfeld (148m)

6-stündlich | Neueste Meldungen
Ortszeit Temperatur Wetter
Mi, 19.12. 13:00 4.6° C bedeckt
Mi, 19.12. 7:00 2.9° C bedeckt
Mi, 19.12. 1:00 2.0° C wolkig
Di, 18.12. 19:00 4.5° C wolkig
Di, 18.12. 13:00 5.1° C leicht bewölkt
Di, 18.12. 7:00 4.2° C bewölkt
Di, 18.12. 1:00 4.8° C leichter Regen
Mo, 17.12. 19:00 4.3° C bewölkt
Ortszeit Temperatur Wetter
Mi, 19.12. 15:00 5.4° C bedeckt
Mi, 19.12. 14:50 5.4° C bedeckt
Mi, 19.12. 14:40 5.4° C -
Mi, 19.12. 14:30 5.3° C bedeckt
Mi, 19.12. 14:20 5.3° C bedeckt
Mi, 19.12. 14:10 5.4° C bedeckt
Mi, 19.12. 14:00 5.2° C bedeckt
Mi, 19.12. 13:30 5.0° C bewölkt
Mi, 19.12. 13:00 4.6° C bedeckt
Mi, 19.12. 12:30 4.2° C bewölkt
Mi, 19.12. 12:00 3.9° C bedeckt
Ortszeit Relative Feuchte Sichtweite
Mi, 19.12. 13:00 80% 26 km
Mi, 19.12. 7:00 74% 35 km
Mi, 19.12. 1:00 85% 30 km
Di, 18.12. 19:00 77% 40 km
Di, 18.12. 13:00 81% 40 km
Di, 18.12. 7:00 89% 15 km
Di, 18.12. 1:00 90% 9 km
Mo, 17.12. 19:00 87% 22 km
Ortszeit Relative Feuchte Sichtweite
Mi, 19.12. 15:00 82% 28 km
Mi, 19.12. 14:50 82% -
Mi, 19.12. 14:40 82% -
Mi, 19.12. 14:30 82% 30 km
Mi, 19.12. 14:20 82% -
Mi, 19.12. 14:10 81% -
Mi, 19.12. 14:00 81% 30 km
Mi, 19.12. 13:30 82% 25 km
Mi, 19.12. 13:00 80% 26 km
Mi, 19.12. 12:30 80% 26 km
Mi, 19.12. 12:00 80% 27 km
Ortszeit Niederschlagsmenge Niederschlagsart
Mi, 19.12. 13:00 0.1 l/m2 in 6 Std. Regen
Mi, 19.12. 7:00 0.0 l/m2 in 12 Std. -
Mi, 19.12. 1:00 0.0 l/m2 in 6 Std. -
Di, 18.12. 19:00 0.1 l/m2 in 12 Std. -
Di, 18.12. 13:00 0.1 l/m2 in 6 Std. -
Di, 18.12. 7:00 0.3 l/m2 in 12 Std. Regen
Di, 18.12. 1:00 0.3 l/m2 in 6 Std. Regen
Mo, 17.12. 19:00 0.1 l/m2 in 12 Std. Regen
Ortszeit Niederschlagsmenge Niederschlagsart
Mi, 19.12. 15:00 0.0 l/m2 in 1 Std. -
Mi, 19.12. 14:50 keine Meldung -
Mi, 19.12. 14:40 keine Meldung -
Mi, 19.12. 14:30 0.0 l/m2 in 1 Std. -
Mi, 19.12. 14:20 keine Meldung -
Mi, 19.12. 14:10 keine Meldung -
Mi, 19.12. 14:00 0.1 l/m2 in 1 Std. Sprühregen
Mi, 19.12. 13:30 0.1 l/m2 in 1 Std. Schnee
Mi, 19.12. 13:00 0.0 l/m2 in 1 Std. Regen
Mi, 19.12. 12:30 0.0 l/m2 in 1 Std. -
Mi, 19.12. 12:00 0.0 l/m2 in 1 Std. -
Ortszeit Stärke Spitze Richtung
km/h Bft. km/h Grad Sektor
Mi, 19.12. 13:00 13 3 37 130° SO
Mi, 19.12. 7:00 24 4 44 160° S
Mi, 19.12. 1:00 24 4 43 150° SO
Di, 18.12. 19:00 13 3 35 160° S
Di, 18.12. 13:00 17 3 33 160° S
Di, 18.12. 7:00 7 2 20 150° SO
Di, 18.12. 1:00 9 2 20 160° S
Mo, 17.12. 19:00 9 2 28 160° S
Ortszeit Stärke Spitze Richtung
km/h Bft. km/h Grad Sektor
Mi, 19.12. 15:00 13 3 33 160° S
Mi, 19.12. 14:50 13 3 - 160° S
Mi, 19.12. 14:40 17 3 - 160° S
Mi, 19.12. 14:30 22 4 32 150° SO
Mi, 19.12. 14:20 22 4 - 150° SO
Mi, 19.12. 14:10 22 4 - 140° SO
Mi, 19.12. 14:00 18 3 25 150° SO
Mi, 19.12. 13:30 13 3 19 140° SO
Mi, 19.12. 13:00 13 3 19 130° SO
Mi, 19.12. 12:30 13 3 19 120° SO
Mi, 19.12. 12:00 15 3 24 130° SO
Ortszeit Untergrenze Bedeckung Gattung
total tief tief mittel hoch
Mi, 19.12. 13:00 570 m 8/8 8/8 - - -
Mi, 19.12. 7:00 2100 m 8/8 8/8 - - -
Mi, 19.12. 1:00 9000 m 8/8 0/8 - - -
Di, 18.12. 19:00 7800 m 7/8 0/8 - - -
Di, 18.12. 13:00 390 m 3/8 3/8 - - -
Di, 18.12. 7:00 540 m 7/8 7/8 - - -
Di, 18.12. 1:00 990 m 7/8 7/8 - - -
Mo, 17.12. 19:00 390 m 7/8 7/8 - - -
Ortszeit Bedeckungsgrad in Achtel und Wolkenuntergrenze
Mi, 19.12. 15:00 8(1050m)
Mi, 19.12. 14:50 8(1050m)
Mi, 19.12. 14:40 -
Mi, 19.12. 14:30 8(1170m)
Mi, 19.12. 14:20 8(1170m)
Mi, 19.12. 14:10 8(1200m)
Mi, 19.12. 14:00 2(480m) 3(690m) 8(1230m)
Mi, 19.12. 13:30 4(510m) 7(690m) 7(1050m)
Mi, 19.12. 13:00 7(570m) 8(750m)
Mi, 19.12. 12:30 7(540m)
Mi, 19.12. 12:00 8(660m) 8(750m)
Ortszeit Luftdruck NN (hPa) Tendenz (hPa in 3 Std.)
Mi, 19.12. 13:00 1015 - 0,2
Mi, 19.12. 7:00 1015 - 0,4
Mi, 19.12. 1:00 1017 - 2,4
Di, 18.12. 19:00 1022 - 1,0
Di, 18.12. 13:00 1024 - 1,9
Di, 18.12. 7:00 1026 + 0,3
Di, 18.12. 1:00 1025 + 0,6
Mo, 17.12. 19:00 1022 + 2,0
Ortszeit Luftdruck NN (hPa) Tendenz (hPa in 3 Std.)
Mi, 19.12. 15:00 1014 - 0,6
Mi, 19.12. 14:50 1014 keine Meldung
Mi, 19.12. 14:40 1014 keine Meldung
Mi, 19.12. 14:30 1014 - 0,7
Mi, 19.12. 14:20 1014 keine Meldung
Mi, 19.12. 14:10 1014 keine Meldung
Mi, 19.12. 14:00 1014 - 0,9
Mi, 19.12. 13:30 1015 - 0,4
Mi, 19.12. 13:00 1015 - 0,2
Mi, 19.12. 12:30 1015 + 0,1
Mi, 19.12. 12:00 1015 0,0
Ortszeit Schneehöhe (cm)
Mi, 19.12. 13:00 0
Mi, 19.12. 7:00 0
Mi, 19.12. 1:00 0
Di, 18.12. 19:00 0
Di, 18.12. 13:00 0
Di, 18.12. 7:00 0
Di, 18.12. 1:00 0
Mo, 17.12. 19:00 0
Ortszeit Schneehöhe (cm)
Mi, 19.12. 15:00 0
Mi, 19.12. 14:50 0
Mi, 19.12. 14:40 0
Mi, 19.12. 14:30 0
Mi, 19.12. 14:20 0
Mi, 19.12. 14:10 0
Mi, 19.12. 14:00 0
Mi, 19.12. 13:30 0
Mi, 19.12. 13:00 0
Mi, 19.12. 12:30 0
Mi, 19.12. 12:00 0
Link zu dieser Seite / Seite empfehlen

Das Wetter in ...